Terminal Aerodrome Forecast
Issued by NWS Mt. Holly, NJ

Home | Current Version | Previous Version | Text Only | Print | Product List | Glossary On
Versions: 1 2 3 4 5 6 7 8 9 10 11 12 13 14 15 16
000
FTUS41 KPHI 231134
TAFILG
TAF
KILG 231134Z 2312/2412 27004KT P6SM BKN035
     FM231400 01004KT P6SM BKN050
     FM231700 08005KT P6SM BKN060
     FM240200 11007KT P6SM BKN060 PROB30 2402/2408 4SM TSRA OVC040CB
     FM240800 VRB04KT 5SM -SHRA BR OVC035=

USA.gov is the U.S. government's official web portal to all federal, state and local government web resources and services.